ADDS METAR Data INFO
IDs: Format: Raw Decoded Include TAF

Data at: 0216 UTC 14 Dec 2017

K1K1 140155Z AUTO 33004KT 10SM CLR 06/M05 A2994 RMK AO2 T00601053
K1K1 140135Z AUTO 33004KT 10SM CLR 08/M05 A2992 RMK AO2 T00781051
K1K1 140115Z AUTO 35005KT 10SM CLR 08/M05 A2991 RMK AO2 T00811055
K1K1 140055Z AUTO 36006KT 10SM CLR 09/M05 A2990 RMK AO2 T00921054
K1K1 140035Z AUTO 36006KT 10SM CLR 10/M05 A2990 RMK AO2 T00951054
K1K1 140015Z AUTO 35005KT 10SM CLR 10/M05 A2990 RMK AO2 T00951054
K1K1 132355Z AUTO 35007KT 10SM CLR 10/M05 A2990 RMK AO2 T01031053 10166 20102
K1K1 132335Z AUTO 34005KT 10SM CLR 10/M05 A2989 RMK AO2 T01041051
K1K1 132315Z AUTO 34006KT 10SM CLR 12/M05 A2989 RMK AO2 T01191050
K1K1 132255Z AUTO 35005KT 10SM CLR 14/M05 A2988 RMK AO2 T01371052
K1K1 132235Z AUTO 32010KT 10SM CLR 14/M05 A2987 RMK AO2 T01431050
K1K1 132215Z AUTO 33011G19KT 10SM CLR 15/M05 A2987 RMK AO2 T01511051
K1K1 132155Z AUTO 33012G18KT 10SM CLR 16/M05 A2986 RMK AO2 T01551052
K1K1 132135Z AUTO 35016G21KT 10SM CLR 16/M05 A2987 RMK AO2 T01561055
K1K1 132115Z AUTO 33013G23KT 10SM CLR 16/M05 A2987 RMK AO2 T01581054
K1K1 132055Z AUTO 33013G20KT 10SM CLR 17/M05 A2986 RMK AO2 T01651051
K1K1 132035Z AUTO 32018G23KT 10SM CLR 17/M05 A2985 RMK AO2 T01651050
K1K1 132015Z AUTO 34014G26KT 10SM CLR 17/M05 A2986 RMK AO2 T01651053
K1K1 131955Z AUTO 33017G22KT 10SM CLR 17/M05 A2986 RMK AO2 T01651052
K1K1 131935Z AUTO 32017G21KT 10SM CLR 17/M05 A2986 RMK AO2 T01661051
K1K1 131915Z AUTO 32015G23KT 10SM CLR 17/M05 A2987 RMK AO2 T01651053
K1K1 131855Z AUTO 34020G29KT 10SM CLR 16/M06 A2987 RMK AO2 T01611057
K1K1 131835Z AUTO 33019G26KT 10SM CLR 16/M06 A2988 RMK AO2 T01601059
K1K1 131815Z AUTO 33019G25KT 10SM CLR 16/M05 A2989 RMK AO2 T01561051
K1K1 131755Z AUTO 34015G27KT 5SM HZ CLR 15/M05 A2990 RMK AO2 T01461053 10146 20006
K1K1 131735Z AUTO 33015G22KT 10SM CLR 13/M05 A2990 RMK AO2 T01261054
K1K1 131715Z AUTO 33012G23KT 10SM CLR 12/M06 A2991 RMK AO2 T01151060
K1K1 131655Z AUTO 33012G25KT 10SM CLR 12/M06 A2991 RMK AO2 T01171057
K1K1 131635Z AUTO 33015G21KT 10SM CLR 11/M06 A2991 RMK AO2 T01111058
K1K1 131615Z AUTO 32010KT 10SM CLR 10/M05 A2991 RMK AO2 T01041055
K1K1 131555Z AUTO 32010G16KT 10SM CLR 10/M05 A2990 RMK AO2 T01021053
K1K1 131535Z AUTO 32011KT 10SM CLR 09/M06 A2989 RMK AO2 T00861056
K1K1 131515Z AUTO 32010KT 10SM CLR 08/M06 A2989 RMK AO2 T00751058
K1K1 131455Z AUTO 32010G15KT 10SM CLR 07/M06 A2988 RMK AO2 T00691060
K1K1 131435Z AUTO 32009KT 10SM CLR 06/M06 A2988 RMK AO2 T00571060
K1K1 131415Z AUTO 31007KT 10SM CLR 04/M06 A2987 RMK AO2 T00411061
K1K1 131355Z AUTO 31007KT 10SM CLR 03/M06 A2986 RMK AO2 T00291065
K1K1 131335Z AUTO 30006KT 10SM CLR 02/M06 A2986 RMK AO2 T00241065
K1K1 131315Z AUTO 30007KT 10SM CLR 03/M06 A2985 RMK AO2 T00301062
K1K1 131255Z AUTO 30007KT 10SM CLR 02/M06 A2985 RMK AO2 T00231060
K1K1 131235Z AUTO 30005KT 10SM CLR 01/M06 A2984 RMK AO2 T00121058
K1K1 131215Z AUTO 27004KT 10SM CLR 01/M05 A2984 RMK AO2 T00081055
K1K1 131155Z AUTO 24005KT 10SM CLR 01/M05 A2983 RMK AO2 T00061050 10020 20000
K1K1 131135Z AUTO 24006KT 10SM CLR 01/M05 A2983 RMK AO2 T00101050
K1K1 131115Z AUTO 22006KT 10SM CLR 01/M05 A2982 RMK AO2 T00101047
K1K1 131055Z AUTO 23007KT 10SM CLR 01/M04 A2982 RMK AO2 T00061045
K1K1 131035Z AUTO 21006KT 10SM CLR 00/M04 A2983 RMK AO2 T00011043
K1K1 131015Z AUTO 21006KT 10SM CLR 00/M04 A2983 RMK AO2 T00021041
K1K1 130955Z AUTO 21007KT 10SM CLR 01/M04 A2984 RMK AO2 T00051040
K1K1 130935Z AUTO 20006KT 10SM CLR 01/M04 A2985 RMK AO2 T00051037
K1K1 130915Z AUTO 20007KT 10SM CLR 01/M04 A2986 RMK AO2 T00051037
K1K1 130855Z AUTO 20006KT 10SM CLR 01/M04 A2987 RMK AO2 T00061037
K1K1 130835Z AUTO 20007KT 10SM CLR 01/M03 A2988 RMK AO2 T00071035
K1K1 130815Z AUTO 19007KT 10SM CLR 01/M03 A2989 RMK AO2 T00111035
K1K1 130755Z AUTO 20007KT 10SM CLR 01/M03 A2989 RMK AO2 T00121035
K1K1 130735Z AUTO 20007KT 10SM CLR 01/M03 A2990 RMK AO2 T00121033
K1K1 130715Z AUTO 20006KT 10SM CLR 01/M03 A2991 RMK AO2 T00131032
K1K1 130655Z AUTO 20006KT 10SM CLR 01/M03 A2992 RMK AO2 T00131031
K1K1 130635Z AUTO 21006KT 10SM CLR 02/M03 A2994 RMK AO2 T00151030
K1K1 130615Z AUTO 20005KT 10SM CLR 02/M03 A2995 RMK AO2 T00161030
K1K1 130555Z AUTO 20007KT 10SM CLR 02/M03 A2996 RMK AO2 T00201030 10059 20020 400911035
K1K1 130535Z AUTO 20008KT 10SM CLR 03/M03 A2997 RMK AO2 T00251027
K1K1 130515Z AUTO 20009KT 10SM CLR 03/M03 A2998 RMK AO2 T00251027
K1K1 130455Z AUTO 20008KT 10SM CLR 03/M03 A2999 RMK AO2 T00261026
K1K1 130435Z AUTO 20008KT 10SM CLR 03/M03 A3000 RMK AO2 T00261026
K1K1 130415Z AUTO 20008KT 10SM CLR 03/M03 A3001 RMK AO2 T00281027
K1K1 130355Z AUTO 20007KT 10SM CLR 03/M03 A3002 RMK AO2 T00301026
K1K1 130335Z AUTO 20008KT 10SM CLR 03/M03 A3003 RMK AO2 T00271026
K1K1 130315Z AUTO 19007KT 10SM CLR 03/M03 A3005 RMK AO2 T00261028
K1K1 130255Z AUTO 19006KT 10SM CLR 03/M03 A3005 RMK AO2 T00301030
K1K1 130235Z AUTO 19006KT 10SM CLR 03/M03 A3007 RMK AO2 T00311030
K1K1 130215Z AUTO 20006KT 10SM CLR 04/M03 A3008 RMK AO2 T00371028
K1K1 130155Z AUTO 20006KT 10SM CLR 04/M03 A3009 RMK AO2 T00401028
K1K1 130140Z AUTO 20006KT 10SM CLR 04/M03 A3009 RMK AO2 T00411027
K1K1 130115Z AUTO 21006KT 10SM CLR 04/M03 A3010 RMK AO2 T00431027
K1K1 130055Z AUTO 20006KT 10SM CLR 05/M03 A3011 RMK AO2 T00471026
K1K1 130035Z AUTO 20006KT 10SM CLR 05/M02 A3012 RMK AO2 T00521025
K1K1 130015Z AUTO 20006KT 10SM CLR 06/M03 A3012 RMK AO2 T00551026
K1K1 122355Z AUTO 20006KT 10SM CLR 06/M02 A3013 RMK AO2 T00601025 10091 20051
K1K1 122335Z AUTO 20005KT 10SM CLR 07/M02 A3014 RMK AO2 T00651024
K1K1 122315Z AUTO 20006KT 10SM CLR 07/M02 A3015 RMK AO2 T00741022
K1K1 122255Z AUTO 21007KT 10SM CLR 08/M03 A3015 RMK AO2 T00841030
K1K1 122235Z AUTO 23005KT 10SM CLR 09/M03 A3017 RMK AO2 T00871029
K1K1 122215Z AUTO 24009KT 10SM CLR 09/M03 A3017 RMK AO2 T00901030
K1K1 122155Z AUTO 26007KT 10SM CLR 09/M03 A3019 RMK AO2 T00901030
K1K1 122135Z AUTO 25006G14KT 10SM CLR 09/M02 A3020 RMK AO2 T00901025
K1K1 122115Z AUTO 24006KT 10SM CLR 09/M02 A3021 RMK AO2 T00901022
K1K1 122055Z AUTO 23008KT 10SM CLR 09/M02 A3022 RMK AO2 T00881020
K1K1 122035Z AUTO 26007KT 10SM CLR 08/M02 A3023 RMK AO2 T00831022
K1K1 122015Z AUTO 25007KT 10SM CLR 08/M02 A3025 RMK AO2 T00801021
K1K1 121955Z AUTO 27006KT 10SM CLR 08/M02 A3026 RMK AO2 T00751019
K1K1 121935Z AUTO 26009KT 10SM CLR 07/M02 A3027 RMK AO2 T00711021
K1K1 121915Z AUTO 00000KT 10SM CLR 07/M02 A3029 RMK AO2 T00651024
K1K1 121855Z AUTO 29007KT 10SM CLR 06/M02 A3030 RMK AO2 T00641021
K1K1 121835Z AUTO 28010KT 10SM CLR 06/M03 A3032 RMK AO2 T00561026
K1K1 121815Z AUTO 27008KT 10SM CLR 05/M03 A3034 RMK AO2 T00531029
K1K1 121755Z AUTO 30004KT 10SM CLR 05/M03 A3035 RMK AO2 T00501028 10050 21035
K1K1 121735Z AUTO 32004KT 10SM CLR 05/M03 A3037 RMK AO2 T00471030
K1K1 121715Z AUTO 29006KT 10SM CLR 04/M03 A3038 RMK AO2 T00401035
K1K1 121655Z AUTO 30003KT 7SM CLR 03/M04 A3039 RMK AO2 T00341037
K1K1 121635Z AUTO 34003KT 10SM CLR 03/M04 A3039 RMK AO2 T00271038
K1K1 121615Z AUTO 34003KT 5SM HZ CLR 02/M04 A3039 RMK AO2 T00211039
K1K1 121555Z AUTO 36004KT 10SM CLR 01/M04 A3039 RMK AO2 T00111044
K1K1 121535Z AUTO 33006KT 10SM CLR 01/M04 A3039 RMK AO2 T00061043
K1K1 121515Z AUTO 34007KT 10SM CLR 00/M04 A3039 RMK AO2 T10021043
K1K1 121455Z AUTO 33005KT 10SM CLR M01/M05 A3039 RMK AO2 T10121049
K1K1 121435Z AUTO 33005KT 10SM CLR M02/M05 A3039 RMK AO2 T10211053